sensor_id;sensor_type;location;lat;lon;timestamp;P1;durP1;ratioP1;P2;durP2;ratioP2
70049;SDS011;57391;51.306;22.680;2023-01-05T00:01:06;10.20;;;5.00;;
70049;SDS011;57391;51.306;22.680;2023-01-05T00:03:35;11.50;;;5.40;;
70049;SDS011;57391;51.306;22.680;2023-01-05T00:06:09;8.60;;;4.80;;
70049;SDS011;57391;51.306;22.680;2023-01-05T00:08:39;10.70;;;4.40;;
70049;SDS011;57391;51.306;22.680;2023-01-05T00:11:16;9.30;;;4.60;;
70049;SDS011;57391;51.306;22.680;2023-01-05T00:14:04;9.10;;;4.80;;
70049;SDS011;57391;51.306;22.680;2023-01-05T00:16:50;7.30;;;4.10;;
70049;SDS011;57391;51.306;22.680;2023-01-05T00:19:36;8.80;;;4.30;;
70049;SDS011;57391;51.306;22.680;2023-01-05T00:22:24;9.20;;;4.30;;
70049;SDS011;57391;51.306;22.680;2023-01-05T00:24:59;7.10;;;4.20;;
70049;SDS011;57391;51.306;22.680;2023-01-05T00:27:30;9.40;;;4.90;;
70049;SDS011;57391;51.306;22.680;2023-01-05T00:29:58;8.50;;;4.20;;
70049;SDS011;57391;51.306;22.680;2023-01-05T00:32:27;9.10;;;4.70;;
70049;SDS011;57391;51.306;22.680;2023-01-05T00:34:58;7.90;;;4.10;;
70049;SDS011;57391;51.306;22.680;2023-01-05T00:37:27;8.00;;;4.30;;
70049;SDS011;57391;51.306;22.680;2023-01-05T00:39:58;9.40;;;4.40;;
70049;SDS011;57391;51.306;22.680;2023-01-05T00:42:26;8.00;;;4.30;;
70049;SDS011;57391;51.306;22.680;2023-01-05T00:44:54;7.30;;;3.90;;
70049;SDS011;57391;51.306;22.680;2023-01-05T00:47:21;7.40;;;3.80;;
70049;SDS011;57391;51.306;22.680;2023-01-05T00:49:48;8.50;;;4.20;;
70049;SDS011;57391;51.306;22.680;2023-01-05T00:52:16;8.50;;;4.80;;
70049;SDS011;57391;51.306;22.680;2023-01-05T00:54:43;7.40;;;3.80;;
70049;SDS011;57391;51.306;22.680;2023-01-05T00:57:11;9.60;;;4.60;;
70049;SDS011;57391;51.306;22.680;2023-01-05T00:59:38;9.00;;;3.70;;
70049;SDS011;57391;51.306;22.680;2023-01-05T01:02:06;6.40;;;3.60;;
70049;SDS011;57391;51.306;22.680;2023-01-05T01:04:34;8.00;;;4.00;;
70049;SDS011;57391;51.306;22.680;2023-01-05T01:07:03;8.60;;;4.00;;
70049;SDS011;57391;51.306;22.680;2023-01-05T01:09:31;8.10;;;4.40;;
70049;SDS011;57391;51.306;22.680;2023-01-05T01:11:59;7.70;;;4.30;;
70049;SDS011;57391;51.306;22.680;2023-01-05T01:14:27;9.10;;;3.90;;
70049;SDS011;57391;51.306;22.680;2023-01-05T01:16:54;7.90;;;3.70;;
70049;SDS011;57391;51.306;22.680;2023-01-05T01:19:24;9.30;;;4.70;;
70049;SDS011;57391;51.306;22.680;2023-01-05T01:21:53;9.20;;;4.40;;
70049;SDS011;57391;51.306;22.680;2023-01-05T01:24:23;8.40;;;4.30;;
70049;SDS011;57391;51.306;22.680;2023-01-05T01:26:54;6.70;;;3.60;;
70049;SDS011;57391;51.306;22.680;2023-01-05T01:29:23;7.90;;;3.60;;
70049;SDS011;57391;51.306;22.680;2023-01-05T01:31:52;9.30;;;4.30;;
70049;SDS011;57391;51.306;22.680;2023-01-05T01:34:19;8.30;;;3.90;;
70049;SDS011;57391;51.306;22.680;2023-01-05T01:36:47;8.10;;;4.00;;
70049;SDS011;57391;51.306;22.680;2023-01-05T01:39:15;7.30;;;3.80;;
70049;SDS011;57391;51.306;22.680;2023-01-05T01:41:46;7.80;;;3.80;;
70049;SDS011;57391;51.306;22.680;2023-01-05T01:47:43;7.80;;;4.50;;
70049;SDS011;57391;51.306;22.680;2023-01-05T01:53:07;7.80;;;3.50;;
70049;SDS011;57391;51.306;22.680;2023-01-05T01:55:59;7.60;;;3.90;;
70049;SDS011;57391;51.306;22.680;2023-01-05T01:58:30;7.10;;;3.60;;
70049;SDS011;57391;51.306;22.680;2023-01-05T02:00:58;9.70;;;4.00;;
70049;SDS011;57391;51.306;22.680;2023-01-05T02:03:30;10.10;;;4.30;;
70049;SDS011;57391;51.306;22.680;2023-01-05T02:05:57;7.70;;;3.50;;
70049;SDS011;57391;51.306;22.680;2023-01-05T02:08:25;8.40;;;4.20;;
70049;SDS011;57391;51.306;22.680;2023-01-05T02:11:37;7.70;;;4.00;;
70049;SDS011;57391;51.306;22.680;2023-01-05T02:17:20;6.90;;;3.50;;
70049;SDS011;57391;51.306;22.680;2023-01-05T02:34:32;5.30;;;2.90;;
70049;SDS011;57391;51.306;22.680;2023-01-05T02:37:51;7.60;;;3.20;;
70049;SDS011;57391;51.306;22.680;2023-01-05T02:40:33;7.30;;;3.80;;
70049;SDS011;57391;51.306;22.680;2023-01-05T02:43:07;7.20;;;3.30;;
70049;SDS011;57391;51.306;22.680;2023-01-05T02:45:37;8.90;;;4.00;;
70049;SDS011;57391;51.306;22.680;2023-01-05T02:48:05;7.80;;;3.30;;
70049;SDS011;57391;51.306;22.680;2023-01-05T02:53:45;6.20;;;3.20;;
70049;SDS011;57391;51.306;22.680;2023-01-05T02:56:36;8.70;;;3.70;;
70049;SDS011;57391;51.306;22.680;2023-01-05T02:59:13;6.60;;;3.30;;
70049;SDS011;57391;51.306;22.680;2023-01-05T03:02:08;6.80;;;3.50;;
70049;SDS011;57391;51.306;22.680;2023-01-05T03:05:11;6.30;;;3.30;;
70049;SDS011;57391;51.306;22.680;2023-01-05T03:07:43;7.10;;;3.30;;
70049;SDS011;57391;51.306;22.680;2023-01-05T03:10:13;6.70;;;3.00;;
70049;SDS011;57391;51.306;22.680;2023-01-05T03:13:04;6.80;;;3.20;;
70049;SDS011;57391;51.306;22.680;2023-01-05T03:15:52;7.20;;;3.30;;
70049;SDS011;57391;51.306;22.680;2023-01-05T03:18:30;6.40;;;3.10;;
70049;SDS011;57391;51.306;22.680;2023-01-05T03:21:00;5.90;;;2.70;;
70049;SDS011;57391;51.306;22.680;2023-01-05T03:23:28;6.00;;;3.30;;
70049;SDS011;57391;51.306;22.680;2023-01-05T03:26:13;6.70;;;3.40;;
70049;SDS011;57391;51.306;22.680;2023-01-05T03:29:01;5.50;;;3.00;;
70049;SDS011;57391;51.306;22.680;2023-01-05T03:32:11;7.00;;;3.60;;
70049;SDS011;57391;51.306;22.680;2023-01-05T03:35:09;8.60;;;3.70;;
70049;SDS011;57391;51.306;22.680;2023-01-05T03:38:16;5.40;;;2.80;;
70049;SDS011;57391;51.306;22.680;2023-01-05T03:40:51;6.80;;;3.40;;
70049;SDS011;57391;51.306;22.680;2023-01-05T03:43:22;6.50;;;3.50;;
70049;SDS011;57391;51.306;22.680;2023-01-05T03:45:52;7.30;;;3.00;;
70049;SDS011;57391;51.306;22.680;2023-01-05T03:48:25;4.60;;;2.60;;
70049;SDS011;57391;51.306;22.680;2023-01-05T03:50:54;7.00;;;3.80;;
70049;SDS011;57391;51.306;22.680;2023-01-05T03:53:22;6.80;;;3.10;;
70049;SDS011;57391;51.306;22.680;2023-01-05T03:55:49;6.40;;;3.60;;
70049;SDS011;57391;51.306;22.680;2023-01-05T03:58:17;7.90;;;3.30;;
70049;SDS011;57391;51.306;22.680;2023-01-05T04:00:47;9.00;;;4.80;;
70049;SDS011;57391;51.306;22.680;2023-01-05T04:03:15;6.70;;;3.10;;
70049;SDS011;57391;51.306;22.680;2023-01-05T04:05:42;7.20;;;3.50;;
70049;SDS011;57391;51.306;22.680;2023-01-05T04:08:10;8.00;;;3.40;;
70049;SDS011;57391;51.306;22.680;2023-01-05T04:10:38;6.50;;;3.30;;
70049;SDS011;57391;51.306;22.680;2023-01-05T04:13:05;6.40;;;3.00;;
70049;SDS011;57391;51.306;22.680;2023-01-05T04:15:33;6.20;;;3.10;;
70049;SDS011;57391;51.306;22.680;2023-01-05T04:18:02;5.80;;;3.00;;
70049;SDS011;57391;51.306;22.680;2023-01-05T04:20:29;6.30;;;3.00;;
70049;SDS011;57391;51.306;22.680;2023-01-05T04:22:57;6.70;;;3.00;;
70049;SDS011;57391;51.306;22.680;2023-01-05T04:25:25;5.30;;;2.50;;
70049;SDS011;57391;51.306;22.680;2023-01-05T04:27:52;5.00;;;2.50;;
70049;SDS011;57391;51.306;22.680;2023-01-05T04:30:21;4.50;;;2.40;;
70049;SDS011;57391;51.306;22.680;2023-01-05T04:32:49;6.10;;;2.70;;
70049;SDS011;57391;51.306;22.680;2023-01-05T04:35:16;4.90;;;2.10;;
70049;SDS011;57391;51.306;22.680;2023-01-05T04:37:44;4.90;;;2.00;;
70049;SDS011;57391;51.306;22.680;2023-01-05T04:40:12;4.10;;;1.70;;
70049;SDS011;57391;51.306;22.680;2023-01-05T04:42:47;4.50;;;2.30;;
70049;SDS011;57391;51.306;22.680;2023-01-05T04:45:15;3.10;;;1.50;;
70049;SDS011;57391;51.306;22.680;2023-01-05T04:47:42;4.80;;;1.70;;
70049;SDS011;57391;51.306;22.680;2023-01-05T04:50:10;3.40;;;1.40;;
70049;SDS011;57391;51.306;22.680;2023-01-05T04:52:38;3.10;;;1.30;;
70049;SDS011;57391;51.306;22.680;2023-01-05T04:55:05;4.10;;;1.40;;
70049;SDS011;57391;51.306;22.680;2023-01-05T04:57:33;4.80;;;1.40;;
70049;SDS011;57391;51.306;22.680;2023-01-05T05:00:00;2.10;;;1.00;;
70049;SDS011;57391;51.306;22.680;2023-01-05T05:02:30;2.70;;;1.20;;
70049;SDS011;57391;51.306;22.680;2023-01-05T05:04:59;4.10;;;1.40;;
70049;SDS011;57391;51.306;22.680;2023-01-05T05:07:27;2.20;;;0.80;;
70049;SDS011;57391;51.306;22.680;2023-01-05T05:09:54;2.50;;;1.10;;
70049;SDS011;57391;51.306;22.680;2023-01-05T05:12:21;2.90;;;1.10;;
70049;SDS011;57391;51.306;22.680;2023-01-05T05:14:50;2.90;;;0.80;;
70049;SDS011;57391;51.306;22.680;2023-01-05T05:17:18;2.60;;;1.00;;
70049;SDS011;57391;51.306;22.680;2023-01-05T05:19:45;2.30;;;1.10;;
70049;SDS011;57391;51.306;22.680;2023-01-05T05:22:12;2.20;;;1.10;;
70049;SDS011;57391;51.306;22.680;2023-01-05T05:24:39;2.90;;;1.20;;
70049;SDS011;57391;51.306;22.680;2023-01-05T05:27:07;2.60;;;1.20;;
70049;SDS011;57391;51.306;22.680;2023-01-05T05:29:34;2.70;;;1.20;;
70049;SDS011;57391;51.306;22.680;2023-01-05T05:32:02;2.00;;;1.20;;
70049;SDS011;57391;51.306;22.680;2023-01-05T05:34:29;2.30;;;1.10;;
70049;SDS011;57391;51.306;22.680;2023-01-05T05:37:00;2.20;;;1.10;;
70049;SDS011;57391;51.306;22.680;2023-01-05T05:39:28;2.50;;;1.10;;
70049;SDS011;57391;51.306;22.680;2023-01-05T05:41:55;2.30;;;1.20;;
70049;SDS011;57391;51.306;22.680;2023-01-05T05:44:22;2.40;;;1.20;;
70049;SDS011;57391;51.306;22.680;2023-01-05T05:46:49;2.70;;;1.20;;
70049;SDS011;57391;51.306;22.680;2023-01-05T05:49:16;2.20;;;1.20;;
70049;SDS011;57391;51.306;22.680;2023-01-05T05:51:43;2.90;;;1.20;;
70049;SDS011;57391;51.306;22.680;2023-01-05T05:54:10;2.10;;;1.00;;
70049;SDS011;57391;51.306;22.680;2023-01-05T05:56:37;2.70;;;1.00;;
70049;SDS011;57391;51.306;22.680;2023-01-05T05:59:04;3.10;;;1.30;;
70049;SDS011;57391;51.306;22.680;2023-01-05T06:01:31;2.60;;;1.30;;
70049;SDS011;57391;51.306;22.680;2023-01-05T06:03:58;3.40;;;1.50;;
70049;SDS011;57391;51.306;22.680;2023-01-05T06:06:25;2.10;;;1.20;;
70049;SDS011;57391;51.306;22.680;2023-01-05T06:08:52;3.60;;;1.40;;
70049;SDS011;57391;51.306;22.680;2023-01-05T06:11:19;2.60;;;1.10;;
70049;SDS011;57391;51.306;22.680;2023-01-05T06:13:46;2.60;;;1.30;;
70049;SDS011;57391;51.306;22.680;2023-01-05T06:16:14;3.60;;;1.40;;
70049;SDS011;57391;51.306;22.680;2023-01-05T06:18:42;3.30;;;1.60;;
70049;SDS011;57391;51.306;22.680;2023-01-05T06:21:09;2.80;;;1.60;;
70049;SDS011;57391;51.306;22.680;2023-01-05T06:23:36;3.10;;;1.40;;
70049;SDS011;57391;51.306;22.680;2023-01-05T06:26:05;3.30;;;1.30;;
70049;SDS011;57391;51.306;22.680;2023-01-05T06:28:32;3.50;;;1.40;;
70049;SDS011;57391;51.306;22.680;2023-01-05T06:31:00;2.70;;;1.30;;
70049;SDS011;57391;51.306;22.680;2023-01-05T06:33:27;3.10;;;1.60;;
70049;SDS011;57391;51.306;22.680;2023-01-05T06:35:54;2.70;;;1.30;;
70049;SDS011;57391;51.306;22.680;2023-01-05T06:38:24;2.80;;;1.40;;
70049;SDS011;57391;51.306;22.680;2023-01-05T06:40:52;3.60;;;1.50;;
70049;SDS011;57391;51.306;22.680;2023-01-05T06:43:20;3.80;;;1.70;;
70049;SDS011;57391;51.306;22.680;2023-01-05T06:45:48;3.20;;;1.50;;
70049;SDS011;57391;51.306;22.680;2023-01-05T06:48:15;4.00;;;1.50;;
70049;SDS011;57391;51.306;22.680;2023-01-05T06:50:42;5.50;;;2.00;;
70049;SDS011;57391;51.306;22.680;2023-01-05T06:53:10;3.70;;;1.40;;
70049;SDS011;57391;51.306;22.680;2023-01-05T06:55:37;4.60;;;1.80;;
70049;SDS011;57391;51.306;22.680;2023-01-05T06:58:04;4.50;;;1.60;;
70049;SDS011;57391;51.306;22.680;2023-01-05T07:00:30;6.00;;;1.70;;
70049;SDS011;57391;51.306;22.680;2023-01-05T07:02:58;3.20;;;1.40;;
70049;SDS011;57391;51.306;22.680;2023-01-05T07:05:25;4.80;;;1.60;;
70049;SDS011;57391;51.306;22.680;2023-01-05T07:07:53;3.50;;;1.50;;
70049;SDS011;57391;51.306;22.680;2023-01-05T07:10:20;3.30;;;1.40;;
70049;SDS011;57391;51.306;22.680;2023-01-05T07:12:47;3.90;;;1.50;;
70049;SDS011;57391;51.306;22.680;2023-01-05T07:15:14;4.70;;;1.50;;
70049;SDS011;57391;51.306;22.680;2023-01-05T07:17:41;2.60;;;1.10;;
70049;SDS011;57391;51.306;22.680;2023-01-05T07:20:08;3.90;;;1.40;;
70049;SDS011;57391;51.306;22.680;2023-01-05T07:22:36;3.50;;;1.40;;
70049;SDS011;57391;51.306;22.680;2023-01-05T07:25:03;4.20;;;1.40;;
70049;SDS011;57391;51.306;22.680;2023-01-05T07:27:30;3.90;;;1.50;;
70049;SDS011;57391;51.306;22.680;2023-01-05T07:29:58;3.30;;;1.30;;
70049;SDS011;57391;51.306;22.680;2023-01-05T07:32:25;3.20;;;1.30;;
70049;SDS011;57391;51.306;22.680;2023-01-05T07:34:52;3.40;;;1.60;;
70049;SDS011;57391;51.306;22.680;2023-01-05T07:37:19;4.20;;;1.80;;
70049;SDS011;57391;51.306;22.680;2023-01-05T07:39:46;4.90;;;1.90;;
70049;SDS011;57391;51.306;22.680;2023-01-05T07:42:13;3.90;;;1.50;;
70049;SDS011;57391;51.306;22.680;2023-01-05T07:44:41;4.00;;;1.70;;
70049;SDS011;57391;51.306;22.680;2023-01-05T07:47:08;5.60;;;1.90;;
70049;SDS011;57391;51.306;22.680;2023-01-05T07:49:35;4.00;;;1.70;;
70049;SDS011;57391;51.306;22.680;2023-01-05T07:52:03;4.10;;;1.70;;
70049;SDS011;57391;51.306;22.680;2023-01-05T07:54:30;4.20;;;2.10;;
70049;SDS011;57391;51.306;22.680;2023-01-05T07:56:57;4.50;;;2.00;;
70049;SDS011;57391;51.306;22.680;2023-01-05T07:59:24;6.20;;;2.30;;
70049;SDS011;57391;51.306;22.680;2023-01-05T08:01:52;3.50;;;1.50;;
70049;SDS011;57391;51.306;22.680;2023-01-05T08:04:19;3.90;;;1.70;;
70049;SDS011;57391;51.306;22.680;2023-01-05T08:06:46;4.00;;;1.70;;
70049;SDS011;57391;51.306;22.680;2023-01-05T08:09:13;3.90;;;1.40;;
70049;SDS011;57391;51.306;22.680;2023-01-05T08:11:59;3.50;;;1.80;;
70049;SDS011;57391;51.306;22.680;2023-01-05T08:14:26;3.50;;;1.70;;
70049;SDS011;57391;51.306;22.680;2023-01-05T08:16:53;3.60;;;1.80;;
70049;SDS011;57391;51.306;22.680;2023-01-05T08:19:20;3.10;;;1.70;;
70049;SDS011;57391;51.306;22.680;2023-01-05T08:21:48;4.80;;;1.60;;
70049;SDS011;57391;51.306;22.680;2023-01-05T08:24:15;2.90;;;1.50;;
70049;SDS011;57391;51.306;22.680;2023-01-05T08:26:42;5.10;;;1.60;;
70049;SDS011;57391;51.306;22.680;2023-01-05T08:29:10;3.50;;;1.60;;
70049;SDS011;57391;51.306;22.680;2023-01-05T08:31:38;2.70;;;1.40;;
70049;SDS011;57391;51.306;22.680;2023-01-05T08:34:07;5.30;;;1.70;;
70049;SDS011;57391;51.306;22.680;2023-01-05T08:36:34;6.40;;;1.70;;
70049;SDS011;57391;51.306;22.680;2023-01-05T08:39:02;4.40;;;1.80;;
70049;SDS011;57391;51.306;22.680;2023-01-05T08:41:34;3.80;;;1.50;;
70049;SDS011;57391;51.306;22.680;2023-01-05T08:44:05;2.90;;;1.40;;
70049;SDS011;57391;51.306;22.680;2023-01-05T08:46:34;4.30;;;1.50;;
70049;SDS011;57391;51.306;22.680;2023-01-05T08:49:04;5.00;;;1.60;;
70049;SDS011;57391;51.306;22.680;2023-01-05T08:51:33;5.40;;;1.80;;
70049;SDS011;57391;51.306;22.680;2023-01-05T08:54:00;3.40;;;1.50;;
70049;SDS011;57391;51.306;22.680;2023-01-05T08:56:29;3.70;;;1.50;;
70049;SDS011;57391;51.306;22.680;2023-01-05T08:58:56;5.90;;;1.90;;
70049;SDS011;57391;51.306;22.680;2023-01-05T09:01:26;4.20;;;1.50;;
70049;SDS011;57391;51.306;22.680;2023-01-05T09:03:53;4.50;;;2.00;;
70049;SDS011;57391;51.306;22.680;2023-01-05T09:06:21;3.70;;;1.50;;
70049;SDS011;57391;51.306;22.680;2023-01-05T09:08:48;3.30;;;1.60;;
70049;SDS011;57391;51.306;22.680;2023-01-05T09:11:17;3.80;;;1.60;;
70049;SDS011;57391;51.306;22.680;2023-01-05T09:13:54;4.10;;;1.60;;
70049;SDS011;57391;51.306;22.680;2023-01-05T09:16:26;5.00;;;1.90;;
70049;SDS011;57391;51.306;22.680;2023-01-05T09:18:56;3.90;;;1.80;;
70049;SDS011;57391;51.306;22.680;2023-01-05T09:21:25;3.90;;;1.60;;
70049;SDS011;57391;51.306;22.680;2023-01-05T09:23:52;4.50;;;1.70;;
70049;SDS011;57391;51.306;22.680;2023-01-05T09:26:20;4.50;;;1.70;;
70049;SDS011;57391;51.306;22.680;2023-01-05T09:28:47;4.60;;;1.40;;
70049;SDS011;57391;51.306;22.680;2023-01-05T09:31:17;4.50;;;1.50;;
70049;SDS011;57391;51.306;22.680;2023-01-05T09:33:47;3.80;;;1.60;;
70049;SDS011;57391;51.306;22.680;2023-01-05T09:36:16;4.70;;;1.80;;
70049;SDS011;57391;51.306;22.680;2023-01-05T09:38:53;6.10;;;2.10;;
70049;SDS011;57391;51.306;22.680;2023-01-05T09:41:37;4.80;;;1.90;;
70049;SDS011;57391;51.306;22.680;2023-01-05T09:44:30;3.70;;;1.40;;
70049;SDS011;57391;51.306;22.680;2023-01-05T09:47:29;3.70;;;1.50;;
70049;SDS011;57391;51.306;22.680;2023-01-05T09:50:05;3.70;;;1.40;;
70049;SDS011;57391;51.306;22.680;2023-01-05T09:52:38;4.50;;;1.60;;
70049;SDS011;57391;51.306;22.680;2023-01-05T09:55:16;6.90;;;2.70;;
70049;SDS011;57391;51.306;22.680;2023-01-05T09:57:51;6.80;;;1.70;;
70049;SDS011;57391;51.306;22.680;2023-01-05T10:00:23;4.50;;;1.80;;
70049;SDS011;57391;51.306;22.680;2023-01-05T10:02:58;3.80;;;1.70;;
70049;SDS011;57391;51.306;22.680;2023-01-05T10:05:30;6.20;;;1.90;;
70049;SDS011;57391;51.306;22.680;2023-01-05T10:08:02;5.30;;;1.90;;
70049;SDS011;57391;51.306;22.680;2023-01-05T10:10:55;4.30;;;1.80;;
70049;SDS011;57391;51.306;22.680;2023-01-05T10:14:11;6.20;;;1.80;;
70049;SDS011;57391;51.306;22.680;2023-01-05T10:16:44;5.40;;;2.00;;
70049;SDS011;57391;51.306;22.680;2023-01-05T10:19:16;4.80;;;2.10;;
70049;SDS011;57391;51.306;22.680;2023-01-05T10:24:59;5.50;;;1.90;;
70049;SDS011;57391;51.306;22.680;2023-01-05T10:33:47;4.50;;;2.00;;
70049;SDS011;57391;51.306;22.680;2023-01-05T10:45:12;5.20;;;1.90;;
70049;SDS011;57391;51.306;22.680;2023-01-05T10:47:42;5.40;;;2.00;;
70049;SDS011;57391;51.306;22.680;2023-01-05T10:52:55;3.40;;;1.90;;
70049;SDS011;57391;51.306;22.680;2023-01-05T10:55:24;6.20;;;1.90;;
70049;SDS011;57391;51.306;22.680;2023-01-05T10:57:54;5.40;;;2.30;;
70049;SDS011;57391;51.306;22.680;2023-01-05T11:00:37;6.40;;;2.40;;
70049;SDS011;57391;51.306;22.680;2023-01-05T11:03:13;4.00;;;1.60;;
70049;SDS011;57391;51.306;22.680;2023-01-05T11:05:45;4.70;;;1.90;;
70049;SDS011;57391;51.306;22.680;2023-01-05T11:08:17;5.30;;;1.90;;
70049;SDS011;57391;51.306;22.680;2023-01-05T11:10:57;3.70;;;1.70;;
70049;SDS011;57391;51.306;22.680;2023-01-05T11:13:36;6.00;;;1.90;;
70049;SDS011;57391;51.306;22.680;2023-01-05T11:16:15;3.80;;;1.80;;
70049;SDS011;57391;51.306;22.680;2023-01-05T11:18:54;5.40;;;1.50;;
70049;SDS011;57391;51.306;22.680;2023-01-05T11:21:26;3.60;;;1.60;;
70049;SDS011;57391;51.306;22.680;2023-01-05T11:24:31;4.60;;;1.90;;
70049;SDS011;57391;51.306;22.680;2023-01-05T11:32:43;6.10;;;2.80;;
70049;SDS011;57391;51.306;22.680;2023-01-05T11:35:18;7.60;;;3.50;;
70049;SDS011;57391;51.306;22.680;2023-01-05T11:37:51;6.10;;;3.00;;
70049;SDS011;57391;51.306;22.680;2023-01-05T11:40:18;8.50;;;3.00;;
70049;SDS011;57391;51.306;22.680;2023-01-05T11:42:49;7.50;;;3.00;;
70049;SDS011;57391;51.306;22.680;2023-01-05T11:45:27;7.10;;;2.40;;
70049;SDS011;57391;51.306;22.680;2023-01-05T11:48:05;5.70;;;2.10;;
70049;SDS011;57391;51.306;22.680;2023-01-05T11:50:47;4.10;;;1.80;;
70049;SDS011;57391;51.306;22.680;2023-01-05T11:53:36;6.80;;;2.10;;
70049;SDS011;57391;51.306;22.680;2023-01-05T11:56:20;4.90;;;2.20;;
70049;SDS011;57391;51.306;22.680;2023-01-05T11:58:50;5.40;;;1.90;;
70049;SDS011;57391;51.306;22.680;2023-01-05T12:07:35;7.00;;;2.20;;
70049;SDS011;57391;51.306;22.680;2023-01-05T12:13:38;7.40;;;1.90;;
70049;SDS011;57391;51.306;22.680;2023-01-05T12:31:21;5.70;;;1.70;;
70049;SDS011;57391;51.306;22.680;2023-01-05T12:34:18;4.30;;;1.60;;
70049;SDS011;57391;51.306;22.680;2023-01-05T12:37:28;6.40;;;2.00;;
70049;SDS011;57391;51.306;22.680;2023-01-05T12:46:09;6.70;;;2.60;;
70049;SDS011;57391;51.306;22.680;2023-01-05T12:48:49;7.80;;;2.50;;
70049;SDS011;57391;51.306;22.680;2023-01-05T12:51:25;8.40;;;3.10;;
70049;SDS011;57391;51.306;22.680;2023-01-05T12:54:08;7.90;;;3.00;;
70049;SDS011;57391;51.306;22.680;2023-01-05T12:56:54;8.80;;;2.90;;
70049;SDS011;57391;51.306;22.680;2023-01-05T12:59:38;6.10;;;2.60;;
70049;SDS011;57391;51.306;22.680;2023-01-05T13:02:35;9.10;;;2.90;;
70049;SDS011;57391;51.306;22.680;2023-01-05T13:05:12;9.10;;;3.00;;
70049;SDS011;57391;51.306;22.680;2023-01-05T13:07:55;7.00;;;2.60;;
70049;SDS011;57391;51.306;22.680;2023-01-05T13:10:48;7.00;;;2.30;;
70049;SDS011;57391;51.306;22.680;2023-01-05T13:13:35;8.70;;;2.60;;
70049;SDS011;57391;51.306;22.680;2023-01-05T13:16:19;6.10;;;2.10;;
70049;SDS011;57391;51.306;22.680;2023-01-05T13:19:14;8.80;;;2.20;;
70049;SDS011;57391;51.306;22.680;2023-01-05T13:21:46;5.20;;;1.80;;
70049;SDS011;57391;51.306;22.680;2023-01-05T13:24:18;5.80;;;2.00;;
70049;SDS011;57391;51.306;22.680;2023-01-05T13:27:03;5.60;;;1.90;;
70049;SDS011;57391;51.306;22.680;2023-01-05T13:29:37;6.60;;;2.20;;
70049;SDS011;57391;51.306;22.680;2023-01-05T13:35:16;7.20;;;2.20;;
70049;SDS011;57391;51.306;22.680;2023-01-05T13:46:40;8.60;;;2.70;;
70049;SDS011;57391;51.306;22.680;2023-01-05T13:52:54;7.20;;;2.40;;
70049;SDS011;57391;51.306;22.680;2023-01-05T13:55:31;6.20;;;2.30;;
70049;SDS011;57391;51.306;22.680;2023-01-05T14:01:16;7.80;;;2.70;;
70049;SDS011;57391;51.306;22.680;2023-01-05T14:03:56;9.20;;;3.00;;
70049;SDS011;57391;51.306;22.680;2023-01-05T14:06:26;6.20;;;2.60;;
70049;SDS011;57391;51.306;22.680;2023-01-05T14:09:04;7.90;;;2.80;;
70049;SDS011;57391;51.306;22.680;2023-01-05T14:11:34;8.50;;;3.10;;
70049;SDS011;57391;51.306;22.680;2023-01-05T14:14:24;9.50;;;3.50;;
70049;SDS011;57391;51.306;22.680;2023-01-05T14:16:54;8.70;;;2.80;;
70049;SDS011;57391;51.306;22.680;2023-01-05T14:19:23;8.00;;;3.20;;
70049;SDS011;57391;51.306;22.680;2023-01-05T14:24:45;9.60;;;3.90;;
70049;SDS011;57391;51.306;22.680;2023-01-05T14:27:20;10.50;;;3.90;;
70049;SDS011;57391;51.306;22.680;2023-01-05T14:32:34;11.00;;;3.50;;
70049;SDS011;57391;51.306;22.680;2023-01-05T14:37:40;9.10;;;3.20;;
70049;SDS011;57391;51.306;22.680;2023-01-05T14:42:55;6.50;;;2.60;;
70049;SDS011;57391;51.306;22.680;2023-01-05T14:45:32;8.90;;;3.00;;
70049;SDS011;57391;51.306;22.680;2023-01-05T14:48:06;7.70;;;2.90;;
70049;SDS011;57391;51.306;22.680;2023-01-05T14:51:25;10.40;;;4.00;;
70049;SDS011;57391;51.306;22.680;2023-01-05T14:54:00;8.20;;;2.60;;
70049;SDS011;57391;51.306;22.680;2023-01-05T14:56:31;7.40;;;2.60;;
70049;SDS011;57391;51.306;22.680;2023-01-05T14:59:21;8.30;;;2.50;;
70049;SDS011;57391;51.306;22.680;2023-01-05T15:02:00;11.10;;;3.40;;
70049;SDS011;57391;51.306;22.680;2023-01-05T15:04:40;8.00;;;2.40;;
70049;SDS011;57391;51.306;22.680;2023-01-05T15:07:49;5.30;;;2.10;;
70049;SDS011;57391;51.306;22.680;2023-01-05T15:13:39;6.70;;;2.50;;
70049;SDS011;57391;51.306;22.680;2023-01-05T15:34:51;6.30;;;1.90;;
70049;SDS011;57391;51.306;22.680;2023-01-05T15:37:32;10.00;;;2.90;;
70049;SDS011;57391;51.306;22.680;2023-01-05T15:40:04;9.10;;;2.10;;
70049;SDS011;57391;51.306;22.680;2023-01-05T15:42:56;9.20;;;2.50;;
70049;SDS011;57391;51.306;22.680;2023-01-05T15:45:33;8.50;;;2.80;;
70049;SDS011;57391;51.306;22.680;2023-01-05T15:48:08;9.60;;;2.80;;
70049;SDS011;57391;51.306;22.680;2023-01-05T15:56:04;5.80;;;1.60;;
70049;SDS011;57391;51.306;22.680;2023-01-05T15:58:48;4.50;;;1.70;;
70049;SDS011;57391;51.306;22.680;2023-01-05T16:01:16;4.80;;;1.40;;
70049;SDS011;57391;51.306;22.680;2023-01-05T16:03:45;4.50;;;1.30;;
70049;SDS011;57391;51.306;22.680;2023-01-05T16:08:57;6.00;;;1.50;;
70049;SDS011;57391;51.306;22.680;2023-01-05T16:11:36;3.60;;;1.20;;
70049;SDS011;57391;51.306;22.680;2023-01-05T16:14:23;7.10;;;2.20;;
70049;SDS011;57391;51.306;22.680;2023-01-05T16:17:09;7.80;;;2.00;;
70049;SDS011;57391;51.306;22.680;2023-01-05T16:19:42;8.20;;;2.30;;
70049;SDS011;57391;51.306;22.680;2023-01-05T16:27:43;12.10;;;4.60;;
70049;SDS011;57391;51.306;22.680;2023-01-05T16:30:37;10.90;;;4.70;;
70049;SDS011;57391;51.306;22.680;2023-01-05T16:36:17;11.60;;;4.80;;
70049;SDS011;57391;51.306;22.680;2023-01-05T16:38:47;10.50;;;4.00;;
70049;SDS011;57391;51.306;22.680;2023-01-05T16:41:25;8.50;;;3.40;;
70049;SDS011;57391;51.306;22.680;2023-01-05T16:43:55;8.40;;;3.10;;
70049;SDS011;57391;51.306;22.680;2023-01-05T16:46:27;8.00;;;3.30;;
70049;SDS011;57391;51.306;22.680;2023-01-05T16:52:01;7.40;;;2.90;;
70049;SDS011;57391;51.306;22.680;2023-01-05T16:54:39;9.00;;;3.60;;
70049;SDS011;57391;51.306;22.680;2023-01-05T16:57:30;7.90;;;3.10;;
70049;SDS011;57391;51.306;22.680;2023-01-05T17:00:01;7.80;;;3.20;;
70049;SDS011;57391;51.306;22.680;2023-01-05T17:02:42;8.40;;;3.40;;
70049;SDS011;57391;51.306;22.680;2023-01-05T17:05:15;8.20;;;3.30;;
70049;SDS011;57391;51.306;22.680;2023-01-05T17:07:46;8.70;;;3.30;;
70049;SDS011;57391;51.306;22.680;2023-01-05T17:10:23;7.90;;;3.50;;
70049;SDS011;57391;51.306;22.680;2023-01-05T17:13:04;9.00;;;3.40;;
70049;SDS011;57391;51.306;22.680;2023-01-05T17:15:52;8.00;;;3.40;;
70049;SDS011;57391;51.306;22.680;2023-01-05T17:18:27;9.80;;;4.70;;
70049;SDS011;57391;51.306;22.680;2023-01-05T17:20:56;9.90;;;4.40;;
70049;SDS011;57391;51.306;22.680;2023-01-05T17:23:39;7.80;;;3.30;;
70049;SDS011;57391;51.306;22.680;2023-01-05T17:26:23;7.50;;;3.10;;
70049;SDS011;57391;51.306;22.680;2023-01-05T17:28:57;6.30;;;3.00;;
70049;SDS011;57391;51.306;22.680;2023-01-05T17:31:30;8.40;;;3.50;;
70049;SDS011;57391;51.306;22.680;2023-01-05T17:33:58;8.30;;;3.40;;
70049;SDS011;57391;51.306;22.680;2023-01-05T17:36:30;7.80;;;3.40;;
70049;SDS011;57391;51.306;22.680;2023-01-05T17:38:59;7.80;;;3.20;;
70049;SDS011;57391;51.306;22.680;2023-01-05T17:41:27;9.00;;;2.80;;
70049;SDS011;57391;51.306;22.680;2023-01-05T17:43:54;5.70;;;2.70;;
70049;SDS011;57391;51.306;22.680;2023-01-05T17:46:43;8.60;;;3.40;;